Time;durP1;ratioP1;P1;durP2;ratioP2;P2;SDS_P1;SDS_P2;PMS_P1;PMS_P2;Temp;Humidity;BMP_temperature;BMP_pressure;BME280_temperature;BME280_humidity;BME280_pressure;Samples;Min_cycle;Max_cycle;Signal;HPM_P1;HPM_P2
2024/04/05 00:00:13;;;;;;;5.40;2.10;;;13.50;99.90;;;;;;5056513;28;20421;-70
2024/04/05 00:02:44;;;;;;;5.17;2.87;;;13.50;99.90;;;;;;5054150;28;20636;-70
2024/04/05 00:05:11;;;;;;;5.33;2.40;;;13.50;99.90;;;;;;5048733;28;20992;-70
2024/04/05 00:07:40;;;;;;;7.97;2.47;;;13.50;99.90;;;;;;5014944;28;20429;-70
2024/04/05 00:10:08;;;;;;;7.80;2.50;;;13.50;99.90;;;;;;5030775;28;21029;-70
2024/04/05 00:12:35;;;;;;;7.10;2.83;;;13.50;99.90;;;;;;5030731;28;20709;-70
2024/04/05 00:15:01;;;;;;;5.70;2.97;;;13.50;99.90;;;;;;5033660;28;20553;-71
2024/04/05 00:17:29;;;;;;;7.13;2.30;;;13.50;99.90;;;;;;5037236;28;20873;-70
2024/04/05 00:19:56;;;;;;;5.73;3.00;;;13.50;99.90;;;;;;5038607;28;20457;-70
2024/04/05 00:22:23;;;;;;;6.80;2.97;;;13.50;99.90;;;;;;5011567;28;20530;-70
2024/04/05 00:24:57;;;;;;;5.67;3.00;;;13.50;99.90;;;;;;5040408;28;21267;-70
2024/04/05 00:27:27;;;;;;;6.20;2.50;;;13.50;99.90;;;;;;5049828;28;20412;-70
2024/04/05 00:29:53;;;;;;;6.83;2.57;;;13.50;99.90;;;;;;5049000;28;20924;-69
2024/04/05 00:32:24;;;;;;;7.20;2.40;;;13.50;99.90;;;;;;5057364;28;20418;-69
2024/04/05 00:34:50;;;;;;;12.00;2.90;;;13.50;99.90;;;;;;5026670;28;21511;-70
2024/04/05 00:37:19;;;;;;;5.73;2.90;;;13.50;99.90;;;;;;5029596;28;20537;-70
2024/04/05 00:39:45;;;;;;;5.83;2.37;;;13.50;99.90;;;;;;5033351;28;21215;-70
2024/04/05 00:42:11;;;;;;;6.43;2.30;;;13.50;99.90;;;;;;5014962;28;20523;-70
2024/04/05 00:44:40;;;;;;;8.27;2.70;;;13.50;99.90;;;;;;5038668;28;20927;-70
2024/04/05 00:47:06;;;;;;;4.33;2.57;;;13.50;99.90;;;;;;5035744;28;20455;-70
2024/04/05 00:49:34;;;;;;;6.20;2.47;;;13.50;99.90;;;;;;5018455;28;20429;-69
2024/04/05 00:52:04;;;;;;;8.20;2.60;;;13.50;99.90;;;;;;5030344;28;21396;-70
2024/04/05 00:54:37;;;;;;;3.77;2.40;;;13.50;99.90;;;;;;5036209;28;20453;-70
2024/04/05 00:57:06;;;;;;;5.73;2.43;;;13.50;99.90;;;;;;5029505;28;20450;-70
2024/04/05 00:59:35;;;;;;;9.10;3.00;;;13.50;99.90;;;;;;5033646;28;20433;-70
2024/04/05 01:02:06;;;;;;;4.10;2.50;;;13.40;99.90;;;;;;5024855;28;20427;-70
2024/04/05 01:04:37;;;;;;;6.20;2.40;;;13.40;99.90;;;;;;5016442;28;20930;-70
2024/04/05 01:07:05;;;;;;;5.03;2.83;;;13.40;99.90;;;;;;5042805;28;20446;-69
2024/04/05 01:09:36;;;;;;;6.07;2.33;;;13.40;99.90;;;;;;5031936;28;20424;-70
2024/04/05 01:12:06;;;;;;;6.80;2.63;;;13.40;99.90;;;;;;5006703;28;20426;-69
2024/04/05 01:14:35;;;;;;;7.13;2.70;;;13.40;99.90;;;;;;5023679;28;20438;-70
2024/04/05 01:17:03;;;;;;;6.03;2.40;;;13.40;99.90;;;;;;5019689;28;20450;-70
2024/04/05 01:19:32;;;;;;;6.00;2.70;;;13.40;99.90;;;;;;5029922;28;20417;-70
2024/04/05 01:22:02;;;;;;;9.63;2.73;;;13.40;99.90;;;;;;5035367;28;21202;-70
2024/04/05 01:24:31;;;;;;;5.03;2.50;;;13.40;99.90;;;;;;5023085;28;20478;-70
2024/04/05 01:26:57;;;;;;;4.53;2.47;;;13.40;99.90;;;;;;5011505;28;21358;-70
2024/04/05 01:29:25;;;;;;;6.33;2.73;;;13.40;99.90;;;;;;5039769;28;20441;-70
2024/04/05 01:31:54;;;;;;;10.13;3.03;;;13.40;99.90;;;;;;5023235;28;20543;-70
2024/04/05 01:34:23;;;;;;;4.30;3.03;;;13.40;99.90;;;;;;5052166;28;20446;-70
2024/04/05 01:36:51;;;;;;;5.90;2.53;;;13.40;99.90;;;;;;5026407;28;20429;-70
2024/04/05 01:39:17;;;;;;;10.43;2.40;;;13.40;99.90;;;;;;5036280;28;20422;-70
2024/04/05 01:41:46;;;;;;;5.30;2.33;;;13.40;99.90;;;;;;5037896;28;20558;-70
2024/04/05 01:44:12;;;;;;;3.20;2.33;;;13.40;99.90;;;;;;5055348;28;20473;-70
2024/04/05 01:46:40;;;;;;;4.87;2.37;;;13.40;99.90;;;;;;5056508;28;20471;-70
2024/04/05 01:49:10;;;;;;;4.80;2.70;;;13.40;99.90;;;;;;4999716;28;20561;-70
2024/04/05 01:51:44;;;;;;;2.57;1.93;;;13.40;99.90;;;;;;5021942;28;20430;-70
2024/04/05 01:54:17;;;;;;;5.30;3.13;;;13.40;99.90;;;;;;5025980;28;20984;-70
2024/04/05 01:56:46;;;;;;;7.27;3.60;;;13.40;99.90;;;;;;5021483;28;21882;-70
2024/04/05 01:59:15;;;;;;;5.50;2.73;;;13.40;99.90;;;;;;5039345;28;20454;-70
2024/04/05 02:01:48;;;;;;;7.80;2.80;;;13.40;99.90;;;;;;5051665;28;20572;-70
2024/04/05 02:04:17;;;;;;;5.60;2.70;;;13.40;99.90;;;;;;5034787;28;20474;-70
2024/04/05 02:06:45;;;;;;;7.73;2.87;;;13.40;99.90;;;;;;5047316;28;20493;-70
2024/04/05 02:09:14;;;;;;;5.90;2.90;;;13.40;99.90;;;;;;5025631;28;21081;-70
2024/04/05 02:11:42;;;;;;;3.23;2.23;;;13.40;99.90;;;;;;5015006;28;20542;-69
2024/04/05 02:14:08;;;;;;;7.50;2.80;;;13.30;99.90;;;;;;5057412;28;20449;-70
2024/04/05 02:16:34;;;;;;;5.03;2.47;;;13.40;99.90;;;;;;5057356;28;20445;-70
2024/04/05 02:19:00;;;;;;;7.30;2.77;;;13.30;99.90;;;;;;5050124;28;20432;-70
2024/04/05 02:21:26;;;;;;;8.37;3.50;;;13.30;99.90;;;;;;5029731;28;20567;-70
2024/04/05 02:23:52;;;;;;;8.30;2.63;;;13.30;99.90;;;;;;5035667;28;20592;-69
2024/04/05 02:26:19;;;;;;;5.17;2.40;;;13.30;99.90;;;;;;5031340;28;20734;-70
2024/04/05 02:28:45;;;;;;;6.77;2.50;;;13.30;99.90;;;;;;5022809;28;20448;-70
2024/04/05 02:31:13;;;;;;;7.43;3.03;;;13.30;99.90;;;;;;5049211;28;20425;-70
2024/04/05 02:33:41;;;;;;;5.20;2.80;;;13.30;99.90;;;;;;5011189;28;20469;-70
2024/04/05 02:36:07;;;;;;;6.57;2.50;;;13.30;99.90;;;;;;5021215;28;21045;-69
2024/04/05 02:38:36;;;;;;;6.90;2.67;;;13.30;99.90;;;;;;5047829;28;20441;-70
2024/04/05 02:41:07;;;;;;;8.23;2.33;;;13.30;99.90;;;;;;5032880;28;20529;-70
2024/04/05 02:43:38;;;;;;;6.67;2.73;;;13.30;99.90;;;;;;5020284;28;20474;-70
2024/04/05 02:46:06;;;;;;;5.07;2.83;;;13.30;99.90;;;;;;5022763;28;20555;-70
2024/04/05 02:48:33;;;;;;;3.90;2.27;;;13.30;99.90;;;;;;5031789;28;20430;-70
2024/04/05 02:51:02;;;;;;;6.10;2.43;;;13.30;99.90;;;;;;5037424;28;20425;-70
2024/04/05 02:53:28;;;;;;;3.93;2.23;;;13.30;99.90;;;;;;5044515;28;20437;-70
2024/04/05 02:55:58;;;;;;;4.40;2.50;;;13.30;99.90;;;;;;5042941;28;20443;-70
2024/04/05 02:58:26;;;;;;;7.07;3.67;;;13.30;99.90;;;;;;5038461;28;20445;-70
2024/04/05 03:00:56;;;;;;;5.87;2.50;;;13.30;99.90;;;;;;5056367;28;20440;-69
2024/04/05 03:03:24;;;;;;;4.77;2.50;;;13.30;99.90;;;;;;5036907;28;20576;-69
2024/04/05 03:05:50;;;;;;;11.23;3.37;;;13.30;99.90;;;;;;5041538;28;20461;-70
2024/04/05 03:08:16;;;;;;;6.57;2.37;;;13.30;99.90;;;;;;5055509;28;21077;-69
2024/04/05 03:10:47;;;;;;;4.53;2.60;;;13.30;99.90;;;;;;5058453;28;20557;-68
2024/04/05 03:13:13;;;;;;;5.73;2.63;;;13.30;99.90;;;;;;5060991;28;20453;-68
2024/04/05 03:15:45;;;;;;;2.90;2.10;;;13.30;99.90;;;;;;5039572;28;20449;-68
2024/04/05 03:18:11;;;;;;;8.97;2.70;;;13.30;99.90;;;;;;5024225;28;20438;-68
2024/04/05 03:20:37;;;;;;;7.57;2.53;;;13.30;99.90;;;;;;5022031;28;20475;-68
2024/04/05 03:23:06;;;;;;;5.73;2.60;;;13.30;99.90;;;;;;5037152;28;20496;-69
2024/04/05 03:25:32;;;;;;;6.47;2.53;;;13.30;99.90;;;;;;5057644;28;20511;-68
2024/04/05 03:27:58;;;;;;;5.00;2.47;;;13.30;99.90;;;;;;5052153;28;20647;-68
2024/04/05 03:30:26;;;;;;;4.93;2.13;;;13.30;99.90;;;;;;5057070;28;20963;-68
2024/04/05 03:32:52;;;;;;;5.10;2.50;;;13.30;99.90;;;;;;5056729;28;21025;-68
2024/04/05 03:35:19;;;;;;;6.53;2.40;;;13.30;99.90;;;;;;5052463;28;20482;-68
2024/04/05 03:37:48;;;;;;;3.70;2.53;;;13.30;99.90;;;;;;5039572;28;20188;-68
2024/04/05 03:40:14;;;;;;;7.10;2.53;;;13.30;99.90;;;;;;5051850;28;21920;-68
2024/04/05 03:42:40;;;;;;;6.30;2.53;;;13.30;99.90;;;;;;5033838;28;20451;-68
2024/04/05 03:45:09;;;;;;;7.20;2.83;;;13.30;99.90;;;;;;5007868;28;20897;-68
2024/04/05 03:47:36;;;;;;;6.47;2.47;;;13.30;99.90;;;;;;5035327;28;20422;-68
2024/04/05 03:50:08;;;;;;;4.57;2.70;;;13.30;99.90;;;;;;5044346;28;21152;-68
2024/04/05 03:52:36;;;;;;;7.60;2.53;;;13.30;99.90;;;;;;5057236;28;20446;-68
2024/04/05 03:55:08;;;;;;;5.47;2.57;;;13.30;99.90;;;;;;5014015;28;20792;-68
2024/04/05 03:57:34;;;;;;;5.47;2.50;;;13.30;99.90;;;;;;5032786;28;20434;-68
2024/04/05 04:00:00;;;;;;;4.60;2.00;;;13.30;99.90;;;;;;5055743;28;20956;-68
2024/04/05 04:02:26;;;;;;;6.60;2.90;;;13.30;99.90;;;;;;5048264;28;20447;-68
2024/04/05 04:04:52;;;;;;;8.33;3.43;;;13.30;99.90;;;;;;5037922;28;21021;-68
2024/04/05 04:07:21;;;;;;;5.37;2.30;;;13.30;99.90;;;;;;5051961;28;20769;-68
2024/04/05 04:09:49;;;;;;;3.97;2.10;;;13.30;99.90;;;;;;5015900;28;20442;-68
2024/04/05 04:12:17;;;;;;;5.43;2.80;;;13.30;99.90;;;;;;5033501;28;20430;-68
2024/04/05 04:14:44;;;;;;;4.90;2.47;;;13.30;99.90;;;;;;5022004;28;20521;-68
2024/04/05 04:17:12;;;;;;;6.37;2.40;;;13.20;99.90;;;;;;5029345;28;20411;-68
2024/04/05 04:19:41;;;;;;;5.73;2.50;;;13.30;99.90;;;;;;5051386;28;20808;-68
2024/04/05 04:22:07;;;;;;;10.00;2.37;;;13.30;99.90;;;;;;5018667;28;20462;-68
2024/04/05 04:24:33;;;;;;;4.07;2.20;;;13.30;99.90;;;;;;5026618;28;20485;-68
2024/04/05 04:26:59;;;;;;;4.03;3.27;;;13.30;99.90;;;;;;5047897;28;20516;-68
2024/04/05 04:29:25;;;;;;;4.10;2.17;;;13.30;99.90;;;;;;5036730;28;20476;-68
2024/04/05 04:31:51;;;;;;;5.73;2.60;;;13.30;99.90;;;;;;5051464;28;20422;-68
2024/04/05 04:34:18;;;;;;;5.97;2.30;;;13.30;99.90;;;;;;5035506;28;20462;-68
2024/04/05 04:36:46;;;;;;;7.73;2.20;;;13.30;99.90;;;;;;5012607;28;20934;-68
2024/04/05 04:39:12;;;;;;;4.57;2.50;;;13.30;99.90;;;;;;5024060;28;20473;-68
2024/04/05 04:41:38;;;;;;;6.53;2.17;;;13.30;99.90;;;;;;5022904;28;20591;-68
2024/04/05 04:44:07;;;;;;;6.57;2.43;;;13.30;99.90;;;;;;5038591;28;20485;-68
2024/04/05 04:46:36;;;;;;;4.43;2.10;;;13.30;99.90;;;;;;5034649;28;20932;-68
2024/04/05 04:49:09;;;;;;;4.40;1.90;;;13.30;99.90;;;;;;5038865;28;20457;-68
2024/04/05 04:51:40;;;;;;;9.00;2.27;;;13.20;99.90;;;;;;5039302;28;20430;-68
2024/04/05 04:54:07;;;;;;;3.60;2.70;;;13.30;99.90;;;;;;5055694;28;20453;-69
2024/04/05 04:56:32;;;;;;;4.90;2.43;;;13.30;99.90;;;;;;5018692;28;20465;-68
2024/04/05 04:59:01;;;;;;;3.50;2.30;;;13.20;99.90;;;;;;5037886;28;20555;-69
2024/04/05 05:01:27;;;;;;;5.27;2.80;;;13.30;99.90;;;;;;5039821;28;20569;-68
2024/04/05 05:03:54;;;;;;;3.73;2.20;;;13.20;99.90;;;;;;5057411;28;21289;-68
2024/04/05 05:06:20;;;;;;;5.30;2.63;;;13.30;99.90;;;;;;5038494;28;20479;-68
2024/04/05 05:08:46;;;;;;;5.97;2.50;;;13.30;99.90;;;;;;5034269;28;20502;-68
2024/04/05 05:11:14;;;;;;;7.63;2.30;;;13.20;99.90;;;;;;5054808;28;20453;-68
2024/04/05 05:13:43;;;;;;;4.47;2.20;;;13.30;99.90;;;;;;5056988;28;21276;-68
2024/04/05 05:16:09;;;;;;;7.33;2.87;;;13.30;99.90;;;;;;5056150;28;21349;-68
2024/04/05 05:18:37;;;;;;;5.60;2.80;;;13.30;99.90;;;;;;5038788;28;20431;-68
2024/04/05 05:21:08;;;;;;;4.90;2.47;;;13.30;99.90;;;;;;5018913;28;20465;-68
2024/04/05 05:23:41;;;;;;;7.13;2.80;;;13.20;99.90;;;;;;5019071;28;20501;-69
2024/04/05 05:26:09;;;;;;;6.20;3.40;;;13.30;99.90;;;;;;5035559;28;21012;-68
2024/04/05 05:28:35;;;;;;;7.30;3.60;;;13.30;99.90;;;;;;5055251;28;20454;-68
2024/04/05 05:31:01;;;;;;;7.60;2.43;;;13.30;99.90;;;;;;5035186;28;20435;-68
2024/04/05 05:33:27;;;;;;;4.83;2.50;;;13.30;99.90;;;;;;5018828;28;20472;-69
2024/04/05 05:35:53;;;;;;;5.33;2.20;;;13.30;99.90;;;;;;5003417;28;20466;-68
2024/04/05 05:38:19;;;;;;;6.23;2.33;;;13.30;99.90;;;;;;5050272;28;21142;-69
2024/04/05 05:40:46;;;;;;;4.33;2.50;;;13.30;99.90;;;;;;5053507;28;20430;-68
2024/04/05 05:43:14;;;;;;;6.90;2.37;;;13.30;99.90;;;;;;5018177;28;20474;-68
2024/04/05 05:45:40;;;;;;;7.00;2.30;;;13.30;99.90;;;;;;5053544;28;20430;-67
2024/04/05 05:48:06;;;;;;;7.63;2.47;;;13.30;99.90;;;;;;5050758;28;20425;-68
2024/04/05 05:50:32;;;;;;;4.70;2.80;;;13.30;99.90;;;;;;5034460;28;20422;-68
2024/04/05 05:52:58;;;;;;;8.63;3.07;;;13.30;99.90;;;;;;5052389;28;21099;-68
2024/04/05 05:55:25;;;;;;;4.23;2.47;;;13.30;99.90;;;;;;5053295;28;20455;-68
2024/04/05 05:57:51;;;;;;;7.07;2.53;;;13.30;99.90;;;;;;5055777;28;20507;-68
2024/04/05 06:00:18;;;;;;;5.63;2.87;;;13.30;99.90;;;;;;5031657;28;20490;-69
2024/04/05 06:02:44;;;;;;;5.73;2.57;;;13.30;99.90;;;;;;5051900;28;20571;-68
2024/04/05 06:05:13;;;;;;;4.97;2.70;;;13.30;99.90;;;;;;5043836;28;20442;-68
2024/04/05 06:07:41;;;;;;;6.10;2.20;;;13.30;99.90;;;;;;5031030;28;20516;-68
2024/04/05 06:10:10;;;;;;;9.97;2.90;;;13.30;99.90;;;;;;5057340;28;20455;-68
2024/04/05 06:12:39;;;;;;;3.63;2.13;;;13.30;99.90;;;;;;5027415;28;20440;-67
2024/04/05 06:15:14;;;;;;;6.73;2.50;;;13.30;99.90;;;;;;5052952;28;20450;-68
2024/04/05 06:17:40;;;;;;;6.27;2.50;;;13.30;99.90;;;;;;5030404;28;20613;-68
2024/04/05 06:20:09;;;;;;;6.63;2.57;;;13.30;99.90;;;;;;5036635;28;21033;-68
2024/04/05 06:22:40;;;;;;;4.27;2.07;;;13.30;99.90;;;;;;5034418;28;20488;-67
2024/04/05 06:25:06;;;;;;;7.07;2.40;;;13.30;99.90;;;;;;5036142;28;20530;-68
2024/04/05 06:27:35;;;;;;;5.10;2.70;;;13.30;99.90;;;;;;5032394;28;20501;-68
2024/04/05 06:30:02;;;;;;;3.17;2.20;;;13.30;99.90;;;;;;5016365;28;20510;-66
2024/04/05 06:32:30;;;;;;;4.80;2.53;;;13.30;99.90;;;;;;5035365;28;20472;-68
2024/04/05 06:34:56;;;;;;;4.13;2.50;;;13.30;99.90;;;;;;5022136;28;20454;-67
2024/04/05 06:37:23;;;;;;;6.63;2.87;;;13.30;99.90;;;;;;5048758;23;20497;-30
2024/04/05 06:39:53;;;;;;;6.67;2.40;;;13.30;99.90;;;;;;5049442;28;21052;-36
2024/04/05 06:42:21;;;;;;;3.43;2.30;;;13.30;99.90;;;;;;5023902;28;20552;-35
2024/04/05 06:44:52;;;;;;;5.43;2.67;;;13.30;99.90;;;;;;5031264;28;20550;-37
2024/04/05 06:47:19;;;;;;;5.67;2.53;;;13.30;99.90;;;;;;5035979;28;20424;-34
2024/04/05 06:49:45;;;;;;;7.60;2.73;;;13.30;99.90;;;;;;5016132;28;20447;-38
2024/04/05 06:52:11;;;;;;;8.33;2.60;;;13.30;99.90;;;;;;5034848;28;21101;-32
2024/04/05 06:54:46;;;;;;;5.47;2.20;;;13.30;99.90;;;;;;5031678;28;20430;-37
2024/04/05 06:57:12;;;;;;;6.10;2.40;;;13.30;99.90;;;;;;5028352;28;21240;-31
2024/04/05 06:59:41;;;;;;;4.83;2.20;;;13.30;99.90;;;;;;5032834;28;20482;-37
2024/04/05 07:02:07;;;;;;;6.40;2.37;;;13.40;99.90;;;;;;5046840;28;20438;-33
2024/04/05 07:04:36;;;;;;;7.43;2.83;;;13.40;99.90;;;;;;5039551;28;20481;-33
2024/04/05 07:07:04;;;;;;;3.70;2.20;;;13.40;99.90;;;;;;5037348;28;20922;-34
2024/04/05 07:09:30;;;;;;;5.57;2.70;;;13.40;99.90;;;;;;5029807;28;20457;-38
2024/04/05 07:11:58;;;;;;;3.93;2.10;;;13.40;99.90;;;;;;5035845;28;20426;-35
2024/04/05 07:14:24;;;;;;;5.20;2.30;;;13.40;99.90;;;;;;5032477;28;20450;-39
2024/04/05 07:16:50;;;;;;;4.00;2.50;;;13.40;99.90;;;;;;5034246;28;20439;-38
2024/04/05 07:19:17;;;;;;;4.83;2.60;;;13.40;99.90;;;;;;5023500;28;20448;-37
2024/04/05 07:21:47;;;;;;;3.93;2.53;;;13.40;99.90;;;;;;5036972;28;21009;-31
2024/04/05 07:24:14;;;;;;;5.37;2.33;;;13.50;99.90;;;;;;5024529;28;20468;-36
2024/04/05 07:26:45;;;;;;;4.17;2.53;;;13.50;99.90;;;;;;5041370;28;20423;-35
2024/04/05 07:29:13;;;;;;;6.47;1.90;;;13.50;99.90;;;;;;5042721;28;20463;-34
2024/04/05 07:31:39;;;;;;;3.77;2.23;;;13.50;99.90;;;;;;5032921;28;20837;-37
2024/04/05 07:34:06;;;;;;;4.63;2.20;;;13.50;99.90;;;;;;5038933;28;20454;-37
2024/04/05 07:36:33;;;;;;;3.53;1.80;;;13.50;99.90;;;;;;5039368;28;20454;-36
2024/04/05 07:38:59;;;;;;;5.70;2.20;;;13.50;99.90;;;;;;4996236;28;1213680;-31
2024/04/05 07:41:25;;;;;;;8.23;2.63;;;13.50;99.90;;;;;;5048331;28;20196;-37
2024/04/05 07:43:53;;;;;;;5.00;2.70;;;13.50;99.90;;;;;;5034288;28;20519;-39
2024/04/05 07:46:20;;;;;;;4.80;2.40;;;13.50;99.90;;;;;;5035877;28;20442;-37
2024/04/05 07:48:48;;;;;;;4.80;2.77;;;13.50;99.90;;;;;;5037715;28;20596;-39
2024/04/05 07:51:14;;;;;;;7.60;2.30;;;13.60;99.90;;;;;;5034156;28;20433;-38
2024/04/05 07:53:41;;;;;;;7.27;2.90;;;13.50;99.90;;;;;;5039006;28;20504;-36
2024/04/05 07:56:07;;;;;;;6.33;2.50;;;13.60;99.90;;;;;;5041058;28;20446;-32
2024/04/05 07:58:33;;;;;;;6.07;2.37;;;13.60;99.90;;;;;;5043814;28;20434;-38
2024/04/05 08:01:02;;;;;;;5.90;1.97;;;13.60;99.90;;;;;;5032948;28;21033;-39
2024/04/05 08:03:30;;;;;;;3.10;2.10;;;13.60;99.90;;;;;;5040428;28;20679;-37
2024/04/05 08:05:59;;;;;;;4.30;2.13;;;13.60;99.90;;;;;;5036958;28;20943;-37
2024/04/05 08:08:27;;;;;;;6.57;2.77;;;13.60;99.90;;;;;;5033111;28;20454;-34
2024/04/05 08:11:01;;;;;;;6.13;2.30;;;13.60;99.90;;;;;;5015733;28;20423;-38
2024/04/05 08:13:27;;;;;;;7.53;2.63;;;13.70;99.90;;;;;;5038866;28;20500;-36
2024/04/05 08:15:53;;;;;;;6.90;2.73;;;13.70;99.90;;;;;;5033747;28;20427;-38
2024/04/05 08:18:19;;;;;;;5.53;3.20;;;13.70;99.90;;;;;;5025474;28;20475;-40
2024/04/05 08:20:45;;;;;;;4.57;2.83;;;13.70;99.90;;;;;;5033025;28;21241;-37
2024/04/05 08:23:14;;;;;;;7.10;2.90;;;13.70;99.90;;;;;;5041211;28;20565;-40
2024/04/05 08:25:40;;;;;;;4.87;1.80;;;13.70;99.90;;;;;;5009414;28;20552;-38
2024/04/05 08:28:07;;;;;;;5.13;2.50;;;13.70;99.90;;;;;;5040678;28;20418;-38
2024/04/05 08:30:33;;;;;;;3.70;2.33;;;13.70;99.90;;;;;;5037072;28;21049;-38
2024/04/05 08:32:59;;;;;;;2.80;1.90;;;13.70;99.90;;;;;;5019174;28;20446;-40
2024/04/05 08:35:25;;;;;;;5.90;2.23;;;13.70;99.90;;;;;;5042642;28;21332;-36
2024/04/05 08:38:02;;;;;;;3.93;2.30;;;13.70;99.90;;;;;;5038952;28;20467;-37
2024/04/05 08:40:29;;;;;;;4.10;2.20;;;13.70;99.90;;;;;;5037728;28;20457;-39
2024/04/05 08:43:00;;;;;;;5.20;2.37;;;13.80;99.90;;;;;;5033164;28;20471;-38
2024/04/05 08:45:30;;;;;;;6.67;2.20;;;13.70;99.90;;;;;;5032745;28;20410;-35
2024/04/05 08:47:58;;;;;;;4.00;1.97;;;13.70;99.90;;;;;;5033633;28;20447;-37
2024/04/05 08:50:26;;;;;;;7.70;2.80;;;13.70;99.90;;;;;;5017813;28;20485;-41
2024/04/05 08:52:52;;;;;;;6.40;2.60;;;13.70;99.90;;;;;;5026678;28;20830;-40
2024/04/05 08:55:21;;;;;;;4.80;2.77;;;13.70;99.90;;;;;;5019786;28;20619;-34
2024/04/05 08:57:48;;;;;;;3.50;2.00;;;13.80;99.90;;;;;;5036272;28;20912;-32
2024/04/05 09:00:23;;;;;;;3.37;2.37;;;13.80;99.90;;;;;;5040328;28;21109;-41
2024/04/05 09:02:52;;;;;;;8.63;2.70;;;13.80;99.90;;;;;;5035295;28;20954;-40
2024/04/05 09:05:19;;;;;;;6.60;3.00;;;13.80;99.90;;;;;;5045390;28;20436;-41
2024/04/05 09:07:46;;;;;;;4.47;2.50;;;13.80;99.90;;;;;;5042363;28;20424;-31
2024/04/05 09:10:14;;;;;;;8.10;2.67;;;13.80;99.90;;;;;;5023300;28;20439;-35
2024/04/05 09:12:51;;;;;;;8.13;2.50;;;13.80;99.90;;;;;;5033378;28;20415;-34
2024/04/05 09:15:22;;;;;;;3.80;2.47;;;13.80;99.90;;;;;;5014803;28;20439;-36
2024/04/05 09:17:53;;;;;;;8.27;2.70;;;13.80;99.90;;;;;;5006057;28;20426;-37
2024/04/05 09:20:40;;;;;;;3.40;2.43;;;13.80;99.90;;;;;;5027646;28;20944;-39
2024/04/05 09:23:06;;;;;;;6.50;2.33;;;13.80;99.90;;;;;;5033259;28;20571;-35
2024/04/05 09:25:38;;;;;;;3.87;2.10;;;13.80;99.90;;;;;;5035801;28;21094;-33
2024/04/05 09:28:08;;;;;;;5.20;2.40;;;13.80;99.90;;;;;;5030739;28;20595;-35
2024/04/05 09:30:35;;;;;;;6.50;2.40;;;13.80;99.90;;;;;;5011047;28;20475;-34
2024/04/05 09:33:01;;;;;;;5.43;2.50;;;13.80;99.90;;;;;;5028090;28;20416;-39
2024/04/05 09:35:29;;;;;;;3.83;2.30;;;13.90;99.90;;;;;;5034206;28;20415;-34
2024/04/05 09:37:56;;;;;;;4.83;2.37;;;13.90;99.90;;;;;;5027962;28;20474;-37
2024/04/05 09:40:25;;;;;;;7.33;2.00;;;13.90;99.90;;;;;;5037203;28;21372;-36
2024/04/05 09:42:58;;;;;;;5.70;2.33;;;13.90;99.90;;;;;;5036176;28;20422;-36
2024/04/05 09:45:30;;;;;;;5.20;2.43;;;13.90;99.90;;;;;;5033129;28;20530;-39
2024/04/05 09:47:59;;;;;;;6.60;2.30;;;13.90;99.90;;;;;;5032059;28;20426;-38
2024/04/05 09:50:29;;;;;;;2.57;1.70;;;13.90;99.90;;;;;;5033423;28;20450;-37
2024/04/05 09:52:59;;;;;;;3.80;2.37;;;14.00;99.90;;;;;;5044397;28;20828;-40
2024/04/05 09:55:29;;;;;;;5.50;2.30;;;13.90;99.90;;;;;;5028051;28;20537;-37
2024/04/05 09:57:56;;;;;;;7.17;2.67;;;14.00;99.90;;;;;;5041653;28;21112;-31
2024/04/05 10:00:28;;;;;;;3.73;1.83;;;14.00;99.90;;;;;;5035091;28;21168;-34
2024/04/05 10:02:57;;;;;;;5.13;2.37;;;14.00;99.90;;;;;;5032394;28;20510;-39
2024/04/05 10:05:32;;;;;;;5.17;2.23;;;14.00;99.90;;;;;;5031422;28;20535;-34
2024/04/05 10:08:17;;;;;;;5.93;2.37;;;14.00;99.90;;;;;;5021761;28;20464;-37
2024/04/05 10:10:48;;;;;;;4.53;2.20;;;14.00;99.90;;;;;;5042245;28;20449;-40
2024/04/05 10:13:16;;;;;;;3.20;2.10;;;14.00;99.90;;;;;;5027525;28;21048;-35
2024/04/05 10:16:01;;;;;;;10.10;2.50;;;14.00;99.90;;;;;;5035021;28;20447;-37
2024/04/05 10:18:27;;;;;;;4.10;2.30;;;14.00;99.90;;;;;;5033698;28;21126;-37
2024/04/05 10:21:08;;;;;;;4.63;2.23;;;14.00;99.90;;;;;;5034309;28;20566;-39
2024/04/05 10:23:37;;;;;;;3.80;2.37;;;14.00;99.90;;;;;;5032499;28;20517;-36
2024/04/05 10:26:13;;;;;;;7.57;2.20;;;14.10;99.90;;;;;;5034702;28;21314;-36
2024/04/05 10:28:42;;;;;;;4.90;2.40;;;14.10;99.90;;;;;;5035268;28;20458;-37
2024/04/05 10:31:10;;;;;;;4.50;2.47;;;14.00;99.90;;;;;;5033299;28;20502;-38
2024/04/05 10:33:40;;;;;;;4.40;2.10;;;14.10;99.90;;;;;;5038615;28;20431;-38
2024/04/05 10:36:07;;;;;;;4.23;2.10;;;14.10;99.90;;;;;;5032369;28;20505;-37
2024/04/05 10:38:35;;;;;;;4.43;2.33;;;14.10;99.90;;;;;;5037894;28;20432;-40
2024/04/05 10:41:04;;;;;;;5.13;2.00;;;14.10;99.90;;;;;;5035963;28;20452;-36
2024/04/05 10:43:33;;;;;;;7.00;2.20;;;14.10;99.90;;;;;;5030304;28;20480;-38
2024/04/05 10:46:01;;;;;;;6.00;2.43;;;14.10;99.90;;;;;;5032958;28;20421;-36
2024/04/05 10:48:27;;;;;;;3.23;2.00;;;14.10;99.90;;;;;;5018021;28;20436;-39
2024/04/05 10:50:53;;;;;;;8.10;2.30;;;14.10;99.90;;;;;;5036151;28;21015;-39
2024/04/05 10:53:21;;;;;;;3.43;2.20;;;14.10;99.90;;;;;;5034005;28;20461;-38
2024/04/05 10:55:51;;;;;;;6.30;3.23;;;14.10;99.90;;;;;;5037041;28;20942;-37
2024/04/05 10:58:21;;;;;;;4.30;2.33;;;14.20;99.90;;;;;;5051355;28;20550;-35
2024/04/05 11:00:47;;;;;;;5.30;1.70;;;14.10;99.90;;;;;;5030621;28;20967;-38
2024/04/05 11:03:14;;;;;;;5.30;2.10;;;14.20;99.90;;;;;;5028950;28;20465;-41
2024/04/05 11:05:40;;;;;;;7.27;2.50;;;14.20;99.90;;;;;;5036398;28;20464;-38
2024/04/05 11:08:10;;;;;;;5.03;2.30;;;14.20;99.90;;;;;;5036800;28;20874;-37
2024/04/05 11:10:37;;;;;;;4.50;2.30;;;14.20;99.90;;;;;;5042793;28;20770;-36
2024/04/05 11:13:15;;;;;;;5.47;2.30;;;14.20;99.90;;;;;;5039780;28;20458;-36
2024/04/05 11:15:42;;;;;;;4.00;2.30;;;14.20;99.90;;;;;;5038780;28;20464;-39
2024/04/05 11:18:08;;;;;;;3.70;2.03;;;14.20;99.90;;;;;;5039563;28;20418;-39
2024/04/05 11:20:39;;;;;;;4.87;2.57;;;14.20;99.90;;;;;;5043181;28;20504;-35
2024/04/05 11:23:12;;;;;;;6.30;2.90;;;14.20;99.90;;;;;;5039840;28;20770;-35
2024/04/05 11:25:38;;;;;;;3.17;2.00;;;14.20;99.90;;;;;;5038138;28;20834;-33
2024/04/05 11:28:11;;;;;;;2.73;1.90;;;14.20;99.90;;;;;;5045011;28;20514;-38
2024/04/05 11:30:39;;;;;;;5.43;2.40;;;14.30;99.90;;;;;;5034478;28;20455;-41
2024/04/05 11:33:07;;;;;;;3.83;2.50;;;14.30;99.90;;;;;;5037575;28;20447;-39
2024/04/05 11:35:40;;;;;;;4.80;2.87;;;14.30;99.90;;;;;;5038660;28;20516;-40
2024/04/05 11:38:06;;;;;;;3.77;2.60;;;14.30;99.90;;;;;;5031965;28;20462;-40
2024/04/05 11:40:33;;;;;;;4.60;2.33;;;14.30;99.90;;;;;;5041617;28;21463;-38
2024/04/05 11:43:01;;;;;;;4.50;2.10;;;14.30;99.90;;;;;;5035331;28;20419;-39
2024/04/05 11:45:27;;;;;;;4.83;2.30;;;14.30;99.90;;;;;;5033184;28;20580;-41
2024/04/05 11:47:54;;;;;;;4.30;2.50;;;14.30;99.90;;;;;;5037130;28;20466;-40
2024/04/05 11:50:20;;;;;;;6.53;3.23;;;14.40;99.90;;;;;;5049220;28;20500;-39
2024/04/05 11:52:47;;;;;;;4.80;2.87;;;14.40;99.90;;;;;;5038283;28;20435;-40
2024/04/05 11:55:13;;;;;;;5.70;2.43;;;14.40;99.90;;;;;;5037609;28;20435;-39
2024/04/05 11:57:40;;;;;;;5.77;2.57;;;14.40;99.90;;;;;;5037687;28;20433;-41
2024/04/05 12:00:13;;;;;;;5.50;2.33;;;14.40;99.90;;;;;;5020781;28;20947;-39
2024/04/05 12:02:39;;;;;;;4.23;2.30;;;14.40;99.90;;;;;;5003563;28;20475;-39
2024/04/05 12:05:09;;;;;;;3.30;2.70;;;14.40;99.90;;;;;;5037031;28;20552;-41
2024/04/05 12:07:36;;;;;;;4.57;2.10;;;14.40;99.90;;;;;;5036755;28;20453;-39
2024/04/05 12:10:02;;;;;;;4.70;2.57;;;14.40;99.90;;;;;;5038013;28;20446;-36
2024/04/05 12:12:29;;;;;;;2.87;2.10;;;14.40;99.90;;;;;;5036875;28;20458;-41
2024/04/05 12:14:55;;;;;;;3.60;2.40;;;14.50;99.90;;;;;;5033010;28;20477;-40
2024/04/05 12:17:22;;;;;;;6.30;2.80;;;14.50;99.90;;;;;;5035534;28;20538;-40
2024/04/05 12:19:48;;;;;;;2.93;2.17;;;14.50;99.90;;;;;;5035002;28;20443;-40
2024/04/05 12:22:14;;;;;;;3.30;2.43;;;14.50;99.90;;;;;;5042337;28;20963;-39
2024/04/05 12:24:49;;;;;;;3.20;2.10;;;14.50;99.90;;;;;;5042961;28;20474;-40
2024/04/05 12:27:15;;;;;;;3.57;2.20;;;14.50;99.90;;;;;;5032181;28;20557;-40
2024/04/05 12:29:46;;;;;;;4.90;2.33;;;14.60;99.90;;;;;;5038170;28;20568;-38
2024/04/05 12:32:12;;;;;;;4.40;1.80;;;14.60;99.90;;;;;;5034859;28;20423;-38
2024/04/05 12:34:38;;;;;;;3.70;2.37;;;14.60;99.90;;;;;;5037707;28;20818;-38
2024/04/05 12:37:10;;;;;;;3.20;1.80;;;14.60;99.90;;;;;;5026606;28;20446;-40
2024/04/05 12:39:38;;;;;;;2.30;1.73;;;14.60;99.90;;;;;;5026224;28;20869;-40
2024/04/05 12:42:05;;;;;;;2.53;1.80;;;14.60;99.90;;;;;;5034662;28;20423;-38
2024/04/05 12:44:34;;;;;;;4.10;1.73;;;14.70;99.90;;;;;;5032922;28;20467;-40
2024/04/05 12:47:00;;;;;;;4.73;2.03;;;14.70;99.90;;;;;;5018534;28;20504;-40
2024/04/05 12:49:25;;;;;;;2.47;1.70;;;14.70;99.90;;;;;;5029178;28;21176;-40